Flight Track Log - Related Links

Times and Time Zones

All times are in EDT time to prevent confusion due to time zone crossing. See the N224AB flight status page for this flight to view local times or setup timezone preferences in your user account.

Time Position Orientation Groundspeed Altitude Reporting Facility
EDT Latitude Longitude Course Direction KTS MPH feet Rate Location/Type
Sat 06:15:46 PM 36.0017 -80.2564 219° Southwest 155 178 3,900  Level FAA TRACON
Sat 06:16:06 PM 35.9878 -80.2664 210° Southwest 150 173 3,900 150 Level FAA TRACON
Sat 06:16:26 PM 35.9767 -80.2731 206° Southwest 149 171 4,000  Climbing FAA TRACON
Sat 06:16:46 PM 35.9608 -80.2775 193° South 153 176 3,900  Descending FAA TRACON
Sat 06:17:00 PM 36.0066 -79.9936 219° Southwest  Level FlightAware
Sat 06:17:06 PM 35.9486 -80.2803 190° South 156 180 4,000  Level FAA TRACON
Sat 06:17:25 PM 35.9333 -80.2847 193° South 156 180 4,000  Level FAA TRACON
Sat 06:17:45 PM 35.9214 -80.2878 192° South 154 177 4,000  Level FAA TRACON
Sat 06:18:00 PM 35.9729 -80.0274 219° Southwest  Level FlightAware
Sat 06:18:06 PM 35.9061 -80.2919 192° South 153 176 4,000  Level FAA TRACON
Sat 06:18:26 PM 35.8928 -80.2956 192° South 155 178 4,000 -150 Level FAA TRACON
Sat 06:18:46 PM 35.8758 -80.3000 192° South 160 184 3,900 -150 Descending FAA TRACON
Sat 06:19:00 PM 35.9393 -80.0612 219° Southwest  Level FlightAware
Sat 06:19:06 PM 35.8628 -80.3053 198° South 161 185 3,900  Level FAA TRACON
Sat 06:19:26 PM 35.8486 -80.3064 184° South 153 176 4,000  Climbing FAA TRACON
Sat 06:19:46 PM 35.8333 -80.3094 189° South 151 174 3,900  Descending FAA TRACON
Sat 06:20:00 PM 35.9056 -80.0949 219° Southwest  Level FlightAware
Sat 06:20:06 PM 35.8208 -80.3142 197° South 155 178 4,000  Level FAA TRACON
Sat 06:20:26 PM 35.8086 -80.3161 187° South 153 176 4,000  Level FAA TRACON
Sat 06:20:46 PM 35.7917 -80.3219 196° South 156 180 4,000 -150 Level FAA TRACON
Sat 06:21:00 PM 35.8719 -80.1287 219° Southwest  Level FlightAware
Sat 06:21:06 PM 35.7789 -80.3253 192° South 158 182 3,900  Level FAA TRACON
Sat 06:21:26 PM 35.7628 -80.3283 189° South 158 182 4,000  Climbing FAA TRACON
Sat 06:21:46 PM 35.7492 -80.3317 191° South 159 183 3,900  Descending FAA TRACON
Sat 06:22:06 PM 35.7328 -80.3378 197° South 162 186 4,000  Climbing FAA TRACON
Sat 06:22:26 PM 35.7211 -80.3394 187° South 161 185 3,900  Descending FAA TRACON
Sat 06:22:46 PM 35.7053 -80.3436 192° South 161 185 4,000  Climbing FAA TRACON
Sat 06:23:06 PM 35.6881 -80.3478 191° South 162 186 3,900  Descending FAA TRACON
Sat 06:23:25 PM 35.6733 -80.3525 195° South 163 188 4,000  Climbing Atlanta Center
Sat 06:24:26 PM 35.6322 -80.3722 201° Southwest 160 184 3,900 -49 Descending Atlanta Center
Sat 06:25:27 PM 35.6019 -80.4094 225° Southwest 157 181 3,900 -98 Level Atlanta Center
Sat 06:26:28 PM 35.5697 -80.4464 223° Southwest 158 182 3,700 -344 Descending Atlanta Center
Sat 06:27:29 PM 35.5336 -80.4914 225° Southwest 170 196 3,200 -341 Descending Atlanta Center
Sat 06:28:31 PM 35.5056 -80.5336 231° Southwest 162 186 3,000 -328 Descending Atlanta Center
Sat 06:29:37 PM 35.4714 -80.5783 227° Southwest 163 188 2,500 -344 Descending Atlanta Center
Sat 06:30:33 PM 35.4472 -80.6175 233° Southwest 164 189 2,300 -341 Descending Atlanta Center
Sat 06:31:40 PM 35.4133 -80.6675 230° Southwest 164 189 1,800 -469 Descending Atlanta Center
Sat 06:32:41 PM 35.3806 -80.6967 216° Southwest 141 162 1,300 -419 Descending Atlanta Center
Sat 06:33:06 PM 35.3678 -80.7028 201° Southwest 109 125 1,200 -400 Descending FAA TRACON
Sat 06:33:26 PM 35.3681 -80.7117 272° West 94 108 1,000 -450 Descending FAA TRACON
Sat 06:33:46 PM 35.3711 -80.7128 343° North 95 109 900 -150 Descending FAA TRACON
Sat 06:34:06 PM 35.3711 -80.7128 58° Northeast 95 109 900  Level FAA TRACON

Login

Don't have an account? Register now (free) for customized features, flight alerts, and more!